sensor_id;sensor_type;location;lat;lon;timestamp;temperature;humidity
11599;DHT22;5855;48.840;9.188;2024-02-04T00:01:02;9.00;99.90
11599;DHT22;5855;48.840;9.188;2024-02-04T00:03:29;9.00;99.90
11599;DHT22;5855;48.840;9.188;2024-02-04T00:05:56;8.90;99.90
11599;DHT22;5855;48.840;9.188;2024-02-04T00:08:24;8.80;99.90
11599;DHT22;5855;48.840;9.188;2024-02-04T00:10:51;8.90;99.90
11599;DHT22;5855;48.840;9.188;2024-02-04T00:13:18;8.90;99.90
11599;DHT22;5855;48.840;9.188;2024-02-04T00:15:45;8.90;99.90
11599;DHT22;5855;48.840;9.188;2024-02-04T00:18:12;8.90;99.90
11599;DHT22;5855;48.840;9.188;2024-02-04T00:20:38;8.80;99.90
11599;DHT22;5855;48.840;9.188;2024-02-04T00:23:06;8.90;99.90
11599;DHT22;5855;48.840;9.188;2024-02-04T00:25:34;8.90;99.90
11599;DHT22;5855;48.840;9.188;2024-02-04T00:28:01;8.80;99.90
11599;DHT22;5855;48.840;9.188;2024-02-04T00:30:27;8.80;99.90
11599;DHT22;5855;48.840;9.188;2024-02-04T00:32:54;8.70;99.90
11599;DHT22;5855;48.840;9.188;2024-02-04T00:35:21;8.60;99.90
11599;DHT22;5855;48.840;9.188;2024-02-04T00:37:48;8.60;99.90
11599;DHT22;5855;48.840;9.188;2024-02-04T00:40:15;8.60;99.90
11599;DHT22;5855;48.840;9.188;2024-02-04T00:42:45;8.50;99.90
11599;DHT22;5855;48.840;9.188;2024-02-04T00:45:12;8.50;99.90
11599;DHT22;5855;48.840;9.188;2024-02-04T00:47:39;8.50;99.90
11599;DHT22;5855;48.840;9.188;2024-02-04T00:50:07;8.50;99.90
11599;DHT22;5855;48.840;9.188;2024-02-04T00:52:34;8.50;99.90
11599;DHT22;5855;48.840;9.188;2024-02-04T00:55:00;8.60;99.90
11599;DHT22;5855;48.840;9.188;2024-02-04T00:57:27;8.60;99.90
11599;DHT22;5855;48.840;9.188;2024-02-04T00:59:56;8.60;99.90
11599;DHT22;5855;48.840;9.188;2024-02-04T01:02:22;8.70;99.90
11599;DHT22;5855;48.840;9.188;2024-02-04T01:04:49;8.70;99.90
11599;DHT22;5855;48.840;9.188;2024-02-04T01:07:17;8.70;99.90
11599;DHT22;5855;48.840;9.188;2024-02-04T01:09:43;8.60;99.90
11599;DHT22;5855;48.840;9.188;2024-02-04T01:12:10;8.60;99.90
11599;DHT22;5855;48.840;9.188;2024-02-04T01:14:37;8.60;99.90
11599;DHT22;5855;48.840;9.188;2024-02-04T01:17:05;8.60;99.90
11599;DHT22;5855;48.840;9.188;2024-02-04T01:19:33;8.70;99.90
11599;DHT22;5855;48.840;9.188;2024-02-04T01:21:59;8.60;99.90
11599;DHT22;5855;48.840;9.188;2024-02-04T01:24:26;8.50;99.90
11599;DHT22;5855;48.840;9.188;2024-02-04T01:26:53;8.40;99.90
11599;DHT22;5855;48.840;9.188;2024-02-04T01:29:20;8.40;99.90
11599;DHT22;5855;48.840;9.188;2024-02-04T01:31:47;8.30;99.90
11599;DHT22;5855;48.840;9.188;2024-02-04T01:34:15;8.20;99.90
11599;DHT22;5855;48.840;9.188;2024-02-04T01:36:42;8.30;99.90
11599;DHT22;5855;48.840;9.188;2024-02-04T01:39:09;8.20;99.90
11599;DHT22;5855;48.840;9.188;2024-02-04T01:41:35;8.20;99.90
11599;DHT22;5855;48.840;9.188;2024-02-04T01:44:03;8.20;99.90
11599;DHT22;5855;48.840;9.188;2024-02-04T01:46:30;8.20;99.90
11599;DHT22;5855;48.840;9.188;2024-02-04T01:48:57;8.20;99.90
11599;DHT22;5855;48.840;9.188;2024-02-04T01:51:25;8.20;99.90
11599;DHT22;5855;48.840;9.188;2024-02-04T01:53:52;8.20;99.90
11599;DHT22;5855;48.840;9.188;2024-02-04T01:56:19;8.20;99.90
11599;DHT22;5855;48.840;9.188;2024-02-04T01:58:46;8.20;99.90
11599;DHT22;5855;48.840;9.188;2024-02-04T02:01:14;8.20;99.90
11599;DHT22;5855;48.840;9.188;2024-02-04T02:03:42;8.20;99.90
11599;DHT22;5855;48.840;9.188;2024-02-04T02:06:09;8.20;99.90
11599;DHT22;5855;48.840;9.188;2024-02-04T02:08:38;8.20;99.90
11599;DHT22;5855;48.840;9.188;2024-02-04T02:11:13;8.20;99.90
11599;DHT22;5855;48.840;9.188;2024-02-04T02:13:48;8.20;99.90
11599;DHT22;5855;48.840;9.188;2024-02-04T02:16:19;8.20;99.90
11599;DHT22;5855;48.840;9.188;2024-02-04T02:18:50;8.20;99.90
11599;DHT22;5855;48.840;9.188;2024-02-04T02:21:42;8.20;99.90
11599;DHT22;5855;48.840;9.188;2024-02-04T02:26:49;8.30;99.90
11599;DHT22;5855;48.840;9.188;2024-02-04T02:29:16;8.30;99.90
11599;DHT22;5855;48.840;9.188;2024-02-04T02:31:43;8.20;99.90
11599;DHT22;5855;48.840;9.188;2024-02-04T02:34:10;8.20;99.90
11599;DHT22;5855;48.840;9.188;2024-02-04T02:36:44;8.20;99.90
11599;DHT22;5855;48.840;9.188;2024-02-04T02:39:15;8.20;99.90
11599;DHT22;5855;48.840;9.188;2024-02-04T02:41:44;8.20;99.90
11599;DHT22;5855;48.840;9.188;2024-02-04T02:44:16;8.10;99.90
11599;DHT22;5855;48.840;9.188;2024-02-04T02:46:43;8.10;99.90
11599;DHT22;5855;48.840;9.188;2024-02-04T02:49:11;8.10;99.90
11599;DHT22;5855;48.840;9.188;2024-02-04T02:51:38;8.10;99.90
11599;DHT22;5855;48.840;9.188;2024-02-04T02:54:05;8.10;99.90
11599;DHT22;5855;48.840;9.188;2024-02-04T02:56:31;8.20;99.90
11599;DHT22;5855;48.840;9.188;2024-02-04T02:58:58;8.20;99.90
11599;DHT22;5855;48.840;9.188;2024-02-04T03:01:26;8.20;99.90
11599;DHT22;5855;48.840;9.188;2024-02-04T03:03:53;8.10;99.90
11599;DHT22;5855;48.840;9.188;2024-02-04T03:06:20;8.10;99.90
11599;DHT22;5855;48.840;9.188;2024-02-04T03:08:47;8.10;99.90
11599;DHT22;5855;48.840;9.188;2024-02-04T03:11:14;8.10;99.90
11599;DHT22;5855;48.840;9.188;2024-02-04T03:13:40;8.10;99.90
11599;DHT22;5855;48.840;9.188;2024-02-04T03:16:10;8.00;99.90
11599;DHT22;5855;48.840;9.188;2024-02-04T03:18:40;8.10;99.90
11599;DHT22;5855;48.840;9.188;2024-02-04T03:21:12;8.10;99.90
11599;DHT22;5855;48.840;9.188;2024-02-04T03:23:39;8.10;99.90
11599;DHT22;5855;48.840;9.188;2024-02-04T03:26:06;8.10;99.90
11599;DHT22;5855;48.840;9.188;2024-02-04T03:28:32;8.10;99.90
11599;DHT22;5855;48.840;9.188;2024-02-04T03:30:59;8.10;99.90
11599;DHT22;5855;48.840;9.188;2024-02-04T03:33:26;8.10;99.90
11599;DHT22;5855;48.840;9.188;2024-02-04T03:35:54;8.20;99.90
11599;DHT22;5855;48.840;9.188;2024-02-04T03:38:21;8.10;99.90
11599;DHT22;5855;48.840;9.188;2024-02-04T03:40:48;8.10;99.90
11599;DHT22;5855;48.840;9.188;2024-02-04T03:43:15;8.20;99.90
11599;DHT22;5855;48.840;9.188;2024-02-04T03:45:42;8.20;99.90
11599;DHT22;5855;48.840;9.188;2024-02-04T03:48:09;8.20;99.90
11599;DHT22;5855;48.840;9.188;2024-02-04T03:50:36;8.20;99.90
11599;DHT22;5855;48.840;9.188;2024-02-04T03:53:03;8.20;99.90
11599;DHT22;5855;48.840;9.188;2024-02-04T03:55:30;8.20;99.90
11599;DHT22;5855;48.840;9.188;2024-02-04T03:57:58;8.30;99.90
11599;DHT22;5855;48.840;9.188;2024-02-04T04:00:25;8.30;99.90
11599;DHT22;5855;48.840;9.188;2024-02-04T04:02:51;8.20;99.90
11599;DHT22;5855;48.840;9.188;2024-02-04T04:05:18;8.20;99.90
11599;DHT22;5855;48.840;9.188;2024-02-04T04:07:45;8.20;99.90
11599;DHT22;5855;48.840;9.188;2024-02-04T04:10:13;8.20;99.90
11599;DHT22;5855;48.840;9.188;2024-02-04T04:12:40;8.20;99.90
11599;DHT22;5855;48.840;9.188;2024-02-04T04:15:07;8.20;99.90
11599;DHT22;5855;48.840;9.188;2024-02-04T04:17:34;8.10;99.90
11599;DHT22;5855;48.840;9.188;2024-02-04T04:20:01;8.10;99.90
11599;DHT22;5855;48.840;9.188;2024-02-04T04:22:28;8.10;99.90
11599;DHT22;5855;48.840;9.188;2024-02-04T04:24:54;8.10;99.90
11599;DHT22;5855;48.840;9.188;2024-02-04T04:27:24;8.10;99.90
11599;DHT22;5855;48.840;9.188;2024-02-04T04:29:50;8.10;99.90
11599;DHT22;5855;48.840;9.188;2024-02-04T04:32:17;8.00;99.90
11599;DHT22;5855;48.840;9.188;2024-02-04T04:34:44;8.10;99.90
11599;DHT22;5855;48.840;9.188;2024-02-04T04:37:11;8.10;99.90
11599;DHT22;5855;48.840;9.188;2024-02-04T04:39:39;8.10;99.90
11599;DHT22;5855;48.840;9.188;2024-02-04T04:42:26;8.00;99.90
11599;DHT22;5855;48.840;9.188;2024-02-04T04:45:13;8.10;99.90
11599;DHT22;5855;48.840;9.188;2024-02-04T04:47:40;8.10;99.90
11599;DHT22;5855;48.840;9.188;2024-02-04T04:50:07;8.10;99.90
11599;DHT22;5855;48.840;9.188;2024-02-04T04:56:00;8.10;99.90
11599;DHT22;5855;48.840;9.188;2024-02-04T04:58:30;8.10;99.90
11599;DHT22;5855;48.840;9.188;2024-02-04T05:00:57;8.20;99.90
11599;DHT22;5855;48.840;9.188;2024-02-04T05:03:23;8.20;99.90
11599;DHT22;5855;48.840;9.188;2024-02-04T05:05:50;8.20;99.90
11599;DHT22;5855;48.840;9.188;2024-02-04T05:08:17;8.20;99.90
11599;DHT22;5855;48.840;9.188;2024-02-04T05:10:44;8.20;99.90
11599;DHT22;5855;48.840;9.188;2024-02-04T05:13:11;8.20;99.90
11599;DHT22;5855;48.840;9.188;2024-02-04T05:15:39;8.20;99.90
11599;DHT22;5855;48.840;9.188;2024-02-04T05:18:06;8.20;99.90
11599;DHT22;5855;48.840;9.188;2024-02-04T05:20:33;8.20;99.90
11599;DHT22;5855;48.840;9.188;2024-02-04T05:23:00;8.20;99.90
11599;DHT22;5855;48.840;9.188;2024-02-04T05:25:27;8.20;99.90
11599;DHT22;5855;48.840;9.188;2024-02-04T05:27:54;8.20;99.90
11599;DHT22;5855;48.840;9.188;2024-02-04T05:30:21;8.20;99.90
11599;DHT22;5855;48.840;9.188;2024-02-04T05:32:49;8.30;99.90
11599;DHT22;5855;48.840;9.188;2024-02-04T05:35:16;8.30;99.90
11599;DHT22;5855;48.840;9.188;2024-02-04T05:37:42;8.30;99.90
11599;DHT22;5855;48.840;9.188;2024-02-04T05:40:10;8.20;99.90
11599;DHT22;5855;48.840;9.188;2024-02-04T05:42:37;8.20;99.90
11599;DHT22;5855;48.840;9.188;2024-02-04T05:45:05;8.20;99.90
11599;DHT22;5855;48.840;9.188;2024-02-04T05:47:32;8.20;99.90
11599;DHT22;5855;48.840;9.188;2024-02-04T05:50:00;8.20;99.90
11599;DHT22;5855;48.840;9.188;2024-02-04T05:52:27;8.30;99.90
11599;DHT22;5855;48.840;9.188;2024-02-04T05:54:54;8.30;99.90
11599;DHT22;5855;48.840;9.188;2024-02-04T05:57:21;8.30;99.90
11599;DHT22;5855;48.840;9.188;2024-02-04T05:59:49;8.40;99.90
11599;DHT22;5855;48.840;9.188;2024-02-04T06:02:18;8.40;99.90
11599;DHT22;5855;48.840;9.188;2024-02-04T06:04:45;8.50;99.90
11599;DHT22;5855;48.840;9.188;2024-02-04T06:07:15;8.50;99.90
11599;DHT22;5855;48.840;9.188;2024-02-04T06:09:42;8.60;99.90
11599;DHT22;5855;48.840;9.188;2024-02-04T06:12:08;8.60;99.90
11599;DHT22;5855;48.840;9.188;2024-02-04T06:14:35;8.60;99.90
11599;DHT22;5855;48.840;9.188;2024-02-04T06:17:05;8.70;99.90
11599;DHT22;5855;48.840;9.188;2024-02-04T06:19:36;8.80;99.90
11599;DHT22;5855;48.840;9.188;2024-02-04T06:22:03;8.80;99.90
11599;DHT22;5855;48.840;9.188;2024-02-04T06:24:31;8.80;99.90
11599;DHT22;5855;48.840;9.188;2024-02-04T06:26:58;8.80;99.90
11599;DHT22;5855;48.840;9.188;2024-02-04T06:29:25;8.90;99.90
11599;DHT22;5855;48.840;9.188;2024-02-04T06:31:52;8.80;99.90
11599;DHT22;5855;48.840;9.188;2024-02-04T06:34:19;8.70;99.90
11599;DHT22;5855;48.840;9.188;2024-02-04T06:36:45;8.70;99.90
11599;DHT22;5855;48.840;9.188;2024-02-04T06:39:13;8.70;99.90
11599;DHT22;5855;48.840;9.188;2024-02-04T06:41:41;8.70;99.90
11599;DHT22;5855;48.840;9.188;2024-02-04T06:44:08;8.70;99.90
11599;DHT22;5855;48.840;9.188;2024-02-04T06:46:35;8.60;99.90
11599;DHT22;5855;48.840;9.188;2024-02-04T06:49:01;8.60;99.90
11599;DHT22;5855;48.840;9.188;2024-02-04T06:51:28;8.60;99.90
11599;DHT22;5855;48.840;9.188;2024-02-04T06:53:55;8.60;99.90
11599;DHT22;5855;48.840;9.188;2024-02-04T06:56:22;8.60;99.90
11599;DHT22;5855;48.840;9.188;2024-02-04T06:58:50;8.60;99.90
11599;DHT22;5855;48.840;9.188;2024-02-04T07:01:17;8.60;99.90
11599;DHT22;5855;48.840;9.188;2024-02-04T07:03:44;8.60;99.90
11599;DHT22;5855;48.840;9.188;2024-02-04T07:06:11;8.60;99.90
11599;DHT22;5855;48.840;9.188;2024-02-04T07:08:38;8.60;99.90
11599;DHT22;5855;48.840;9.188;2024-02-04T07:11:04;8.70;99.90
11599;DHT22;5855;48.840;9.188;2024-02-04T07:13:32;8.60;99.90
11599;DHT22;5855;48.840;9.188;2024-02-04T07:16:00;8.60;99.90
11599;DHT22;5855;48.840;9.188;2024-02-04T07:18:27;8.60;99.90
11599;DHT22;5855;48.840;9.188;2024-02-04T07:20:54;8.60;99.90
11599;DHT22;5855;48.840;9.188;2024-02-04T07:23:20;8.60;99.90
11599;DHT22;5855;48.840;9.188;2024-02-04T07:25:47;8.60;99.90
11599;DHT22;5855;48.840;9.188;2024-02-04T07:28:14;8.60;99.90
11599;DHT22;5855;48.840;9.188;2024-02-04T07:30:41;8.50;99.90
11599;DHT22;5855;48.840;9.188;2024-02-04T07:33:09;8.50;99.90
11599;DHT22;5855;48.840;9.188;2024-02-04T07:35:36;8.50;99.90
11599;DHT22;5855;48.840;9.188;2024-02-04T07:38:03;8.50;99.90
11599;DHT22;5855;48.840;9.188;2024-02-04T07:40:30;8.40;99.90
11599;DHT22;5855;48.840;9.188;2024-02-04T07:43:00;8.50;99.90
11599;DHT22;5855;48.840;9.188;2024-02-04T07:45:26;8.50;99.90
11599;DHT22;5855;48.840;9.188;2024-02-04T07:47:53;8.50;99.90
11599;DHT22;5855;48.840;9.188;2024-02-04T07:50:21;8.60;99.90
11599;DHT22;5855;48.840;9.188;2024-02-04T07:52:48;8.60;99.90
11599;DHT22;5855;48.840;9.188;2024-02-04T07:55:15;8.70;99.90
11599;DHT22;5855;48.840;9.188;2024-02-04T07:57:42;8.80;99.90
11599;DHT22;5855;48.840;9.188;2024-02-04T08:00:09;8.90;99.90
11599;DHT22;5855;48.840;9.188;2024-02-04T08:02:36;9.00;99.90
11599;DHT22;5855;48.840;9.188;2024-02-04T08:05:04;9.10;99.90
11599;DHT22;5855;48.840;9.188;2024-02-04T08:07:32;9.20;99.90
11599;DHT22;5855;48.840;9.188;2024-02-04T08:09:59;9.30;99.90
11599;DHT22;5855;48.840;9.188;2024-02-04T08:12:26;9.40;99.90
11599;DHT22;5855;48.840;9.188;2024-02-04T08:14:53;9.50;99.90
11599;DHT22;5855;48.840;9.188;2024-02-04T08:17:19;9.50;99.90
11599;DHT22;5855;48.840;9.188;2024-02-04T08:19:46;9.50;99.90
11599;DHT22;5855;48.840;9.188;2024-02-04T08:22:13;9.60;99.90
11599;DHT22;5855;48.840;9.188;2024-02-04T08:24:41;9.70;99.90
11599;DHT22;5855;48.840;9.188;2024-02-04T08:27:08;9.80;99.90
11599;DHT22;5855;48.840;9.188;2024-02-04T08:29:35;9.80;99.90
11599;DHT22;5855;48.840;9.188;2024-02-04T08:32:02;9.90;99.90
11599;DHT22;5855;48.840;9.188;2024-02-04T08:34:29;9.90;99.90
11599;DHT22;5855;48.840;9.188;2024-02-04T08:36:56;9.90;99.90
11599;DHT22;5855;48.840;9.188;2024-02-04T08:39:23;9.90;99.90
11599;DHT22;5855;48.840;9.188;2024-02-04T08:41:52;10.00;99.90
11599;DHT22;5855;48.840;9.188;2024-02-04T08:44:19;10.00;99.90
11599;DHT22;5855;48.840;9.188;2024-02-04T08:46:46;10.00;99.90
11599;DHT22;5855;48.840;9.188;2024-02-04T08:49:13;10.00;99.90
11599;DHT22;5855;48.840;9.188;2024-02-04T08:51:40;10.00;99.90
11599;DHT22;5855;48.840;9.188;2024-02-04T08:54:09;10.10;99.90
11599;DHT22;5855;48.840;9.188;2024-02-04T08:56:37;10.20;99.90
11599;DHT22;5855;48.840;9.188;2024-02-04T08:59:05;10.20;99.90
11599;DHT22;5855;48.840;9.188;2024-02-04T09:01:33;10.20;99.90
11599;DHT22;5855;48.840;9.188;2024-02-04T09:04:00;10.30;99.90
11599;DHT22;5855;48.840;9.188;2024-02-04T09:06:27;10.40;99.90
11599;DHT22;5855;48.840;9.188;2024-02-04T09:08:54;10.60;99.90
11599;DHT22;5855;48.840;9.188;2024-02-04T09:11:21;10.60;99.90
11599;DHT22;5855;48.840;9.188;2024-02-04T09:13:51;10.60;99.90
11599;DHT22;5855;48.840;9.188;2024-02-04T09:16:19;10.70;99.90
11599;DHT22;5855;48.840;9.188;2024-02-04T09:18:46;10.60;99.90
11599;DHT22;5855;48.840;9.188;2024-02-04T09:21:13;10.70;99.90
11599;DHT22;5855;48.840;9.188;2024-02-04T09:23:40;10.70;99.90
11599;DHT22;5855;48.840;9.188;2024-02-04T09:26:09;10.70;99.90
11599;DHT22;5855;48.840;9.188;2024-02-04T09:28:36;10.70;99.90
11599;DHT22;5855;48.840;9.188;2024-02-04T09:31:03;10.60;99.90
11599;DHT22;5855;48.840;9.188;2024-02-04T09:33:32;10.60;99.90
11599;DHT22;5855;48.840;9.188;2024-02-04T09:35:58;10.60;99.90
11599;DHT22;5855;48.840;9.188;2024-02-04T09:38:25;10.60;99.90
11599;DHT22;5855;48.840;9.188;2024-02-04T09:40:52;10.60;99.90
11599;DHT22;5855;48.840;9.188;2024-02-04T09:43:20;10.70;99.90
11599;DHT22;5855;48.840;9.188;2024-02-04T09:45:49;10.90;99.90
11599;DHT22;5855;48.840;9.188;2024-02-04T09:48:17;10.90;99.90
11599;DHT22;5855;48.840;9.188;2024-02-04T09:50:47;10.90;99.90
11599;DHT22;5855;48.840;9.188;2024-02-04T09:53:16;11.10;99.90
11599;DHT22;5855;48.840;9.188;2024-02-04T09:55:47;11.00;99.90
11599;DHT22;5855;48.840;9.188;2024-02-04T09:58:15;11.00;99.90
11599;DHT22;5855;48.840;9.188;2024-02-04T10:00:42;11.10;99.90
11599;DHT22;5855;48.840;9.188;2024-02-04T10:03:10;11.10;99.90
11599;DHT22;5855;48.840;9.188;2024-02-04T10:05:37;11.20;99.90
11599;DHT22;5855;48.840;9.188;2024-02-04T10:08:09;11.40;99.90
11599;DHT22;5855;48.840;9.188;2024-02-04T10:10:36;11.40;99.90
11599;DHT22;5855;48.840;9.188;2024-02-04T10:13:06;11.40;99.90
11599;DHT22;5855;48.840;9.188;2024-02-04T10:15:34;11.60;99.90
11599;DHT22;5855;48.840;9.188;2024-02-04T10:18:03;11.40;99.90
11599;DHT22;5855;48.840;9.188;2024-02-04T10:20:30;11.60;99.90
11599;DHT22;5855;48.840;9.188;2024-02-04T10:22:57;11.50;99.90
11599;DHT22;5855;48.840;9.188;2024-02-04T10:25:26;11.70;99.90
11599;DHT22;5855;48.840;9.188;2024-02-04T10:27:53;11.90;99.90
11599;DHT22;5855;48.840;9.188;2024-02-04T10:30:21;11.90;99.90
11599;DHT22;5855;48.840;9.188;2024-02-04T10:32:50;11.80;99.90
11599;DHT22;5855;48.840;9.188;2024-02-04T10:35:17;11.90;99.90
11599;DHT22;5855;48.840;9.188;2024-02-04T10:37:44;11.80;99.90
11599;DHT22;5855;48.840;9.188;2024-02-04T10:40:12;11.70;99.90
11599;DHT22;5855;48.840;9.188;2024-02-04T10:42:42;11.80;99.90
11599;DHT22;5855;48.840;9.188;2024-02-04T10:45:10;11.90;99.90
11599;DHT22;5855;48.840;9.188;2024-02-04T10:47:39;12.00;99.90
11599;DHT22;5855;48.840;9.188;2024-02-04T10:50:08;12.10;99.90
11599;DHT22;5855;48.840;9.188;2024-02-04T10:52:36;12.20;99.90
11599;DHT22;5855;48.840;9.188;2024-02-04T10:55:07;12.40;99.90
11599;DHT22;5855;48.840;9.188;2024-02-04T10:57:35;12.60;99.90
11599;DHT22;5855;48.840;9.188;2024-02-04T11:00:04;12.70;99.90
11599;DHT22;5855;48.840;9.188;2024-02-04T11:02:35;12.50;99.90
11599;DHT22;5855;48.840;9.188;2024-02-04T11:05:03;12.30;99.90
11599;DHT22;5855;48.840;9.188;2024-02-04T11:07:32;12.40;99.90
11599;DHT22;5855;48.840;9.188;2024-02-04T11:10:00;12.90;99.90
11599;DHT22;5855;48.840;9.188;2024-02-04T11:12:29;13.80;99.90
11599;DHT22;5855;48.840;9.188;2024-02-04T11:14:59;14.80;99.90
11599;DHT22;5855;48.840;9.188;2024-02-04T11:17:57;15.40;99.90
11599;DHT22;5855;48.840;9.188;2024-02-04T11:21:03;15.90;99.90
11599;DHT22;5855;48.840;9.188;2024-02-04T11:23:41;16.50;99.90
11599;DHT22;5855;48.840;9.188;2024-02-04T11:26:10;17.50;99.90
11599;DHT22;5855;48.840;9.188;2024-02-04T11:28:39;17.90;99.90
11599;DHT22;5855;48.840;9.188;2024-02-04T11:31:13;17.70;99.90
11599;DHT22;5855;48.840;9.188;2024-02-04T11:33:42;16.60;99.90
11599;DHT22;5855;48.840;9.188;2024-02-04T11:36:13;15.80;99.90
11599;DHT22;5855;48.840;9.188;2024-02-04T11:38:40;14.80;99.90
11599;DHT22;5855;48.840;9.188;2024-02-04T11:41:07;14.00;99.90
11599;DHT22;5855;48.840;9.188;2024-02-04T11:43:35;13.70;99.90
11599;DHT22;5855;48.840;9.188;2024-02-04T11:46:03;13.70;99.90
11599;DHT22;5855;48.840;9.188;2024-02-04T11:48:31;13.50;99.90
11599;DHT22;5855;48.840;9.188;2024-02-04T11:51:00;13.80;99.90
11599;DHT22;5855;48.840;9.188;2024-02-04T11:53:30;13.70;99.90
11599;DHT22;5855;48.840;9.188;2024-02-04T11:55:58;14.10;99.90
11599;DHT22;5855;48.840;9.188;2024-02-04T11:58:29;13.50;99.90
11599;DHT22;5855;48.840;9.188;2024-02-04T12:00:59;13.20;99.90
11599;DHT22;5855;48.840;9.188;2024-02-04T12:03:29;12.90;99.90
11599;DHT22;5855;48.840;9.188;2024-02-04T12:05:57;12.80;99.90
11599;DHT22;5855;48.840;9.188;2024-02-04T12:08:26;12.40;99.90
11599;DHT22;5855;48.840;9.188;2024-02-04T12:10:54;12.40;99.90
11599;DHT22;5855;48.840;9.188;2024-02-04T12:13:22;12.50;99.90
11599;DHT22;5855;48.840;9.188;2024-02-04T12:15:49;12.60;99.90
11599;DHT22;5855;48.840;9.188;2024-02-04T12:18:17;12.50;99.90
11599;DHT22;5855;48.840;9.188;2024-02-04T12:20:49;12.40;99.90
11599;DHT22;5855;48.840;9.188;2024-02-04T12:23:17;12.40;99.90
11599;DHT22;5855;48.840;9.188;2024-02-04T12:25:46;12.40;99.90
11599;DHT22;5855;48.840;9.188;2024-02-04T12:28:14;12.20;99.90
11599;DHT22;5855;48.840;9.188;2024-02-04T12:30:41;12.20;99.90
11599;DHT22;5855;48.840;9.188;2024-02-04T12:33:18;12.20;99.90
11599;DHT22;5855;48.840;9.188;2024-02-04T12:35:49;12.20;99.90
11599;DHT22;5855;48.840;9.188;2024-02-04T12:38:16;12.40;99.90
11599;DHT22;5855;48.840;9.188;2024-02-04T12:40:45;12.60;99.90
11599;DHT22;5855;48.840;9.188;2024-02-04T12:43:12;12.60;99.90
11599;DHT22;5855;48.840;9.188;2024-02-04T12:45:39;12.50;99.90
11599;DHT22;5855;48.840;9.188;2024-02-04T12:48:07;12.60;99.90
11599;DHT22;5855;48.840;9.188;2024-02-04T12:50:37;12.70;99.90
11599;DHT22;5855;48.840;9.188;2024-02-04T12:53:05;12.60;99.90
11599;DHT22;5855;48.840;9.188;2024-02-04T12:55:33;12.60;99.90
11599;DHT22;5855;48.840;9.188;2024-02-04T12:58:06;12.70;99.90
11599;DHT22;5855;48.840;9.188;2024-02-04T13:00:34;12.70;99.90
11599;DHT22;5855;48.840;9.188;2024-02-04T13:03:02;12.80;99.90
11599;DHT22;5855;48.840;9.188;2024-02-04T13:05:30;12.90;99.90
11599;DHT22;5855;48.840;9.188;2024-02-04T13:07:57;12.90;99.90
11599;DHT22;5855;48.840;9.188;2024-02-04T13:10:28;12.70;99.90
11599;DHT22;5855;48.840;9.188;2024-02-04T13:13:03;12.60;99.90
11599;DHT22;5855;48.840;9.188;2024-02-04T13:15:37;12.50;99.90
11599;DHT22;5855;48.840;9.188;2024-02-04T13:18:04;12.50;99.90
11599;DHT22;5855;48.840;9.188;2024-02-04T13:20:31;12.60;99.90
11599;DHT22;5855;48.840;9.188;2024-02-04T13:22:58;12.70;99.90
11599;DHT22;5855;48.840;9.188;2024-02-04T13:25:29;12.70;99.90
11599;DHT22;5855;48.840;9.188;2024-02-04T13:27:56;12.70;99.90
11599;DHT22;5855;48.840;9.188;2024-02-04T13:30:23;12.70;99.90
11599;DHT22;5855;48.840;9.188;2024-02-04T13:32:52;12.70;99.90
11599;DHT22;5855;48.840;9.188;2024-02-04T13:35:18;12.60;99.90
11599;DHT22;5855;48.840;9.188;2024-02-04T13:37:47;12.60;99.90
11599;DHT22;5855;48.840;9.188;2024-02-04T13:40:17;12.60;99.90
11599;DHT22;5855;48.840;9.188;2024-02-04T13:42:44;12.30;99.90
11599;DHT22;5855;48.840;9.188;2024-02-04T13:45:12;12.20;99.90
11599;DHT22;5855;48.840;9.188;2024-02-04T13:47:40;12.40;99.90
11599;DHT22;5855;48.840;9.188;2024-02-04T13:50:09;12.40;99.90
11599;DHT22;5855;48.840;9.188;2024-02-04T13:52:37;13.00;99.90
11599;DHT22;5855;48.840;9.188;2024-02-04T13:55:07;13.40;99.90
11599;DHT22;5855;48.840;9.188;2024-02-04T13:57:34;13.40;99.90
11599;DHT22;5855;48.840;9.188;2024-02-04T14:00:01;13.20;99.90
11599;DHT22;5855;48.840;9.188;2024-02-04T14:02:30;13.20;99.90
11599;DHT22;5855;48.840;9.188;2024-02-04T14:04:57;13.10;99.90
11599;DHT22;5855;48.840;9.188;2024-02-04T14:07:27;13.00;99.90
11599;DHT22;5855;48.840;9.188;2024-02-04T14:09:54;12.90;99.90
11599;DHT22;5855;48.840;9.188;2024-02-04T14:12:21;12.80;99.90
11599;DHT22;5855;48.840;9.188;2024-02-04T14:14:48;12.70;99.90
11599;DHT22;5855;48.840;9.188;2024-02-04T14:17:14;12.60;99.90
11599;DHT22;5855;48.840;9.188;2024-02-04T14:19:44;12.60;99.90
11599;DHT22;5855;48.840;9.188;2024-02-04T14:22:14;12.50;99.90
11599;DHT22;5855;48.840;9.188;2024-02-04T14:24:43;12.40;99.90
11599;DHT22;5855;48.840;9.188;2024-02-04T14:27:14;12.20;99.90
11599;DHT22;5855;48.840;9.188;2024-02-04T14:29:41;12.10;99.90
11599;DHT22;5855;48.840;9.188;2024-02-04T14:32:08;12.00;99.90
11599;DHT22;5855;48.840;9.188;2024-02-04T14:34:35;12.10;99.90
11599;DHT22;5855;48.840;9.188;2024-02-04T14:37:02;11.90;99.90
11599;DHT22;5855;48.840;9.188;2024-02-04T14:39:29;11.80;99.90
11599;DHT22;5855;48.840;9.188;2024-02-04T14:41:58;11.80;99.90
11599;DHT22;5855;48.840;9.188;2024-02-04T14:44:25;11.80;99.90
11599;DHT22;5855;48.840;9.188;2024-02-04T14:46:52;11.90;99.90
11599;DHT22;5855;48.840;9.188;2024-02-04T14:49:19;11.80;99.90
11599;DHT22;5855;48.840;9.188;2024-02-04T14:51:46;11.80;99.90
11599;DHT22;5855;48.840;9.188;2024-02-04T14:54:13;11.70;99.90
11599;DHT22;5855;48.840;9.188;2024-02-04T14:56:40;11.80;99.90
11599;DHT22;5855;48.840;9.188;2024-02-04T14:59:10;11.70;99.90
11599;DHT22;5855;48.840;9.188;2024-02-04T15:01:37;11.70;99.90
11599;DHT22;5855;48.840;9.188;2024-02-04T15:04:06;11.60;99.90
11599;DHT22;5855;48.840;9.188;2024-02-04T15:06:33;11.70;99.90
11599;DHT22;5855;48.840;9.188;2024-02-04T15:09:00;11.60;99.90
11599;DHT22;5855;48.840;9.188;2024-02-04T15:11:28;11.60;99.90
11599;DHT22;5855;48.840;9.188;2024-02-04T15:13:55;11.50;99.90
11599;DHT22;5855;48.840;9.188;2024-02-04T15:16:24;11.50;99.90
11599;DHT22;5855;48.840;9.188;2024-02-04T15:18:54;11.50;99.90
11599;DHT22;5855;48.840;9.188;2024-02-04T15:21:22;11.40;99.90
11599;DHT22;5855;48.840;9.188;2024-02-04T15:23:50;11.50;99.90
11599;DHT22;5855;48.840;9.188;2024-02-04T15:26:18;11.40;99.90
11599;DHT22;5855;48.840;9.188;2024-02-04T15:28:51;11.40;99.90
11599;DHT22;5855;48.840;9.188;2024-02-04T15:31:19;11.30;99.90
11599;DHT22;5855;48.840;9.188;2024-02-04T15:33:51;11.30;99.90
11599;DHT22;5855;48.840;9.188;2024-02-04T15:36:21;11.30;99.90
11599;DHT22;5855;48.840;9.188;2024-02-04T15:38:53;11.30;99.90
11599;DHT22;5855;48.840;9.188;2024-02-04T15:41:20;11.30;99.90
11599;DHT22;5855;48.840;9.188;2024-02-04T15:43:48;11.30;99.90
11599;DHT22;5855;48.840;9.188;2024-02-04T15:46:15;11.30;99.90
11599;DHT22;5855;48.840;9.188;2024-02-04T15:48:44;11.20;99.90
11599;DHT22;5855;48.840;9.188;2024-02-04T15:51:15;11.10;99.90
11599;DHT22;5855;48.840;9.188;2024-02-04T15:53:45;11.20;99.90
11599;DHT22;5855;48.840;9.188;2024-02-04T15:56:13;11.10;99.90
11599;DHT22;5855;48.840;9.188;2024-02-04T15:58:49;11.10;99.90
11599;DHT22;5855;48.840;9.188;2024-02-04T16:01:22;11.00;99.90
11599;DHT22;5855;48.840;9.188;2024-02-04T16:03:50;10.90;99.90
11599;DHT22;5855;48.840;9.188;2024-02-04T16:06:21;10.90;99.90